createdAt,value
2019-05-25T00:00:25.451Z,5.17
2019-05-25T00:02:54.361Z,4.83
2019-05-25T00:05:23.426Z,5.00
2019-05-25T00:07:52.343Z,5.73
2019-05-25T00:10:21.265Z,4.77
2019-05-25T00:12:50.173Z,5.40
2019-05-25T00:15:19.095Z,6.33
2019-05-25T00:17:47.940Z,6.27
2019-05-25T00:20:16.826Z,3.80
2019-05-25T00:22:45.686Z,3.70
2019-05-25T00:25:14.682Z,3.10
2019-05-25T00:27:43.570Z,3.60
2019-05-25T00:30:12.582Z,6.53
2019-05-25T00:32:41.473Z,5.70
2019-05-25T00:35:10.447Z,5.90
2019-05-25T00:37:39.331Z,9.27
2019-05-25T00:40:08.817Z,2.23
2019-05-25T00:42:37.693Z,4.67
2019-05-25T00:45:07.731Z,2.40
2019-05-25T00:47:36.596Z,5.70
2019-05-25T00:50:06.155Z,3.20
2019-05-25T00:52:35.009Z,5.47
2019-05-25T00:55:04.139Z,6.30
2019-05-25T00:57:32.987Z,5.33
2019-05-25T01:00:01.917Z,4.57
2019-05-25T01:02:30.894Z,3.70
2019-05-25T01:04:59.799Z,4.03
2019-05-25T01:07:28.673Z,5.83
2019-05-25T01:09:57.582Z,4.27
2019-05-25T01:12:26.523Z,5.80
2019-05-25T01:14:55.408Z,5.73
2019-05-25T01:17:24.406Z,6.33
2019-05-25T01:19:53.401Z,6.13
2019-05-25T01:22:22.326Z,4.30
2019-05-25T01:24:51.226Z,3.20
2019-05-25T01:27:20.138Z,4.63
2019-05-25T01:29:49.105Z,4.97
2019-05-25T01:32:18.118Z,5.57
2019-05-25T01:34:46.948Z,4.87
2019-05-25T01:37:15.870Z,4.07
2019-05-25T01:39:44.686Z,6.17
2019-05-25T01:42:13.534Z,4.80
2019-05-25T01:44:42.472Z,3.47
2019-05-25T01:47:11.468Z,5.60
2019-05-25T01:49:40.321Z,4.90
2019-05-25T01:52:09.137Z,3.53
2019-05-25T01:54:37.990Z,7.10
2019-05-25T01:57:06.923Z,2.50
2019-05-25T01:59:35.753Z,3.20
2019-05-25T02:02:04.727Z,3.67
2019-05-25T02:04:33.731Z,3.20
2019-05-25T02:07:02.651Z,3.10
2019-05-25T02:09:31.567Z,3.03
2019-05-25T02:12:00.731Z,4.50
2019-05-25T02:14:29.739Z,3.27
2019-05-25T02:16:58.631Z,4.43
2019-05-25T02:19:27.603Z,7.80
2019-05-25T02:21:56.450Z,5.07
2019-05-25T02:24:25.428Z,5.87
2019-05-25T02:26:54.378Z,3.80
2019-05-25T02:29:23.479Z,3.97
2019-05-25T02:31:52.400Z,5.87
2019-05-25T02:34:21.234Z,6.93
2019-05-25T02:36:50.204Z,6.63
2019-05-25T02:39:19.121Z,5.53
2019-05-25T02:41:47.946Z,6.23
2019-05-25T02:44:16.954Z,5.80
2019-05-25T02:46:45.855Z,7.57
2019-05-25T02:49:14.698Z,7.30
2019-05-25T02:51:43.543Z,6.87
2019-05-25T02:54:12.454Z,8.43
2019-05-25T02:56:41.465Z,7.60
2019-05-25T02:59:10.371Z,8.00
2019-05-25T03:01:39.298Z,8.43
2019-05-25T03:04:08.277Z,9.40
2019-05-25T03:06:38.292Z,10.23
2019-05-25T03:09:07.483Z,9.63
2019-05-25T03:11:37.277Z,11.23
2019-05-25T03:14:06.275Z,10.50
2019-05-25T03:16:35.206Z,9.10
2019-05-25T03:19:04.184Z,9.77
2019-05-25T03:21:33.096Z,10.03
2019-05-25T03:24:02.106Z,11.13
2019-05-25T03:26:31.015Z,10.80
2019-05-25T03:28:59.925Z,12.67
2019-05-25T03:31:28.751Z,11.77
2019-05-25T03:33:57.603Z,11.43
2019-05-25T03:36:26.587Z,11.93
2019-05-25T03:38:55.432Z,10.83
2019-05-25T03:41:24.371Z,11.63
2019-05-25T03:43:53.235Z,11.97
2019-05-25T03:46:22.332Z,12.30
2019-05-25T03:48:51.321Z,12.90
2019-05-25T03:51:20.374Z,13.23
2019-05-25T03:53:49.193Z,12.10
2019-05-25T03:56:18.201Z,11.70
2019-05-25T03:58:47.098Z,12.37
2019-05-25T04:01:15.967Z,11.40
2019-05-25T04:03:44.822Z,11.40
2019-05-25T04:06:13.746Z,13.23
2019-05-25T04:08:42.667Z,10.43
2019-05-25T04:11:11.500Z,10.00
2019-05-25T04:13:40.435Z,11.27
2019-05-25T04:16:09.352Z,8.80
2019-05-25T04:18:38.216Z,9.07
2019-05-25T04:21:07.044Z,8.10
2019-05-25T04:23:35.935Z,9.50
2019-05-25T04:26:19.612Z,10.50
2019-05-25T04:28:35.524Z,7.03
2019-05-25T04:31:04.902Z,9.83
2019-05-25T04:33:33.748Z,8.70
2019-05-25T04:36:02.638Z,8.17
2019-05-25T04:38:31.592Z,8.83
2019-05-25T04:41:00.598Z,6.57
2019-05-25T04:43:29.524Z,8.87
2019-05-25T04:45:58.344Z,7.50
2019-05-25T04:48:27.277Z,7.17
2019-05-25T04:50:56.226Z,7.97
2019-05-25T04:53:25.040Z,6.37
2019-05-25T04:55:53.879Z,6.77
2019-05-25T04:58:22.871Z,6.03
2019-05-25T05:00:51.790Z,9.47
2019-05-25T05:03:20.618Z,6.60
2019-05-25T05:05:49.542Z,7.67
2019-05-25T05:08:18.349Z,5.30
2019-05-25T05:10:47.182Z,7.33
2019-05-25T05:13:16.021Z,5.33
2019-05-25T05:15:44.853Z,11.50
2019-05-25T05:18:13.698Z,6.60
2019-05-25T05:20:42.529Z,8.70
2019-05-25T05:23:11.363Z,7.87
2019-05-25T05:25:40.323Z,7.03
2019-05-25T05:28:09.243Z,5.17
2019-05-25T05:30:38.217Z,5.95
2019-05-25T05:33:07.161Z,6.57
2019-05-25T05:35:38.983Z,9.33
2019-05-25T05:38:08.323Z,6.23
2019-05-25T05:40:57.190Z,7.70
2019-05-25T05:43:29.040Z,6.07
2019-05-25T05:46:00.473Z,6.90
2019-05-25T05:48:32.669Z,7.90
2019-05-25T05:51:01.875Z,7.07
2019-05-25T05:53:32.356Z,8.17
2019-05-25T05:56:01.283Z,7.90
2019-05-25T05:58:30.166Z,5.47
2019-05-25T06:00:59.180Z,6.07
2019-05-25T06:03:28.135Z,7.93
2019-05-25T06:05:57.081Z,6.07
2019-05-25T06:08:25.931Z,8.00
2019-05-25T06:10:54.785Z,6.50
2019-05-25T06:13:23.718Z,6.33
2019-05-25T06:15:55.789Z,7.03
2019-05-25T06:18:23.382Z,7.37
2019-05-25T06:20:52.230Z,9.70
2019-05-25T06:23:21.172Z,5.80
2019-05-25T06:25:50.119Z,8.03
2019-05-25T06:28:22.381Z,9.00
2019-05-25T06:30:49.777Z,6.90
2019-05-25T06:33:18.710Z,7.30
2019-05-25T06:35:47.637Z,6.97
2019-05-25T06:38:16.478Z,6.00
2019-05-25T06:40:45.508Z,7.10
2019-05-25T06:43:14.493Z,6.10
2019-05-25T06:45:43.562Z,5.43
2019-05-25T06:48:12.586Z,7.63
2019-05-25T06:50:41.656Z,5.60
2019-05-25T06:53:10.743Z,7.93
2019-05-25T06:55:39.611Z,8.60
2019-05-25T06:58:08.480Z,8.17
2019-05-25T07:00:37.366Z,7.00
2019-05-25T07:03:06.342Z,4.77
2019-05-25T07:05:35.318Z,5.87
2019-05-25T07:08:04.352Z,9.70
2019-05-25T07:10:33.314Z,8.17
2019-05-25T07:13:02.806Z,7.20
2019-05-25T07:15:31.787Z,6.70
2019-05-25T07:18:00.751Z,10.40
2019-05-25T07:20:29.851Z,7.37
2019-05-25T07:22:58.790Z,6.93
2019-05-25T07:25:27.745Z,6.27
2019-05-25T07:28:00.135Z,6.83
2019-05-25T07:30:27.447Z,10.23
2019-05-25T07:32:56.540Z,8.97
2019-05-25T07:35:25.542Z,7.73
2019-05-25T07:37:54.548Z,9.90
2019-05-25T07:40:23.545Z,12.17
2019-05-25T07:42:52.510Z,13.60
2019-05-25T07:45:21.546Z,10.50
2019-05-25T07:47:50.496Z,12.90
2019-05-25T07:50:19.960Z,9.43
2019-05-25T07:52:51.279Z,11.83
2019-05-25T07:55:20.367Z,9.80
2019-05-25T07:57:51.842Z,11.90
2019-05-25T08:00:20.963Z,12.27
2019-05-25T08:02:49.975Z,10.97
2019-05-25T08:05:19.828Z,10.47
2019-05-25T08:07:48.839Z,10.53
2019-05-25T08:10:17.813Z,14.23
2019-05-25T08:12:46.896Z,14.87
2019-05-25T08:15:16.595Z,12.60
2019-05-25T08:17:45.682Z,11.77
2019-05-25T08:20:15.119Z,10.60
2019-05-25T08:22:44.213Z,13.53
2019-05-25T08:25:13.786Z,11.77
2019-05-25T08:27:42.753Z,10.67
2019-05-25T08:30:11.760Z,11.20
2019-05-25T08:32:40.855Z,11.90
2019-05-25T08:35:09.835Z,12.90
2019-05-25T08:37:42.021Z,12.40
2019-05-25T08:40:12.178Z,12.80
2019-05-25T08:42:41.080Z,11.33
2019-05-25T08:45:10.525Z,11.53
2019-05-25T08:47:39.525Z,11.00
2019-05-25T08:50:09.204Z,9.27
2019-05-25T08:52:38.391Z,10.20
2019-05-25T08:55:08.270Z,11.30
2019-05-25T08:57:37.240Z,11.10
2019-05-25T09:00:08.119Z,5.30
2019-05-25T09:02:37.214Z,10.43
2019-05-25T09:05:06.934Z,9.03
2019-05-25T09:07:37.857Z,10.03
2019-05-25T09:10:07.618Z,8.47
2019-05-25T09:12:36.651Z,11.70
2019-05-25T09:15:06.285Z,8.53
2019-05-25T09:17:35.154Z,8.10
2019-05-25T09:20:04.582Z,10.37
2019-05-25T09:22:33.644Z,9.73
2019-05-25T09:25:02.595Z,7.47
2019-05-25T09:27:31.525Z,8.93
2019-05-25T09:30:00.506Z,8.40
2019-05-25T09:32:29.900Z,10.90
2019-05-25T09:34:58.846Z,6.73
2019-05-25T09:37:27.744Z,10.60
2019-05-25T09:39:56.658Z,9.73
2019-05-25T09:42:25.566Z,9.97
2019-05-25T09:44:54.444Z,8.73
2019-05-25T09:47:23.405Z,2.60
2019-05-25T09:49:52.238Z,3.90
2019-05-25T09:52:21.098Z,8.77
2019-05-25T09:54:51.696Z,9.23
2019-05-25T09:57:20.810Z,11.60
2019-05-25T09:59:49.658Z,9.63
2019-05-25T10:02:18.689Z,7.60
2019-05-25T10:04:47.608Z,6.23
2019-05-25T10:07:16.646Z,6.23
2019-05-25T10:09:45.485Z,6.67
2019-05-25T10:12:16.273Z,8.20
2019-05-25T10:14:44.971Z,8.10
2019-05-25T10:17:13.866Z,9.70
2019-05-25T10:19:42.771Z,8.13
2019-05-25T10:22:11.685Z,10.67
2019-05-25T10:24:40.536Z,9.10
2019-05-25T10:27:09.391Z,14.67
2019-05-25T10:29:38.241Z,9.70
2019-05-25T10:32:07.242Z,6.87
2019-05-25T10:34:36.166Z,7.50
2019-05-25T10:37:05.162Z,8.37
2019-05-25T10:39:34.144Z,9.97
2019-05-25T10:42:03.148Z,7.03
2019-05-25T10:44:32.126Z,11.30
2019-05-25T10:47:01.129Z,10.13
2019-05-25T10:49:30.384Z,9.73
2019-05-25T10:51:59.329Z,9.57
2019-05-25T10:54:28.188Z,8.63
2019-05-25T10:56:57.126Z,10.67
2019-05-25T10:59:26.055Z,6.90
2019-05-25T11:01:54.951Z,8.73
2019-05-25T11:04:23.859Z,8.00
2019-05-25T11:06:52.723Z,7.90
2019-05-25T11:09:21.550Z,7.73
2019-05-25T11:11:50.505Z,7.07
2019-05-25T11:14:19.432Z,8.00
2019-05-25T11:16:48.359Z,3.70
2019-05-25T11:19:17.311Z,6.60
2019-05-25T11:21:46.199Z,7.50
2019-05-25T11:24:15.039Z,6.00
2019-05-25T11:26:43.873Z,5.10
2019-05-25T11:29:12.874Z,4.90
2019-05-25T11:31:41.803Z,6.30
2019-05-25T11:34:10.743Z,8.23
2019-05-25T11:36:39.610Z,3.90
2019-05-25T11:39:08.529Z,4.83
2019-05-25T11:41:37.530Z,7.23
2019-05-25T11:44:06.493Z,5.97
2019-05-25T11:46:35.422Z,5.10
2019-05-25T11:49:04.651Z,2.50
2019-05-25T11:51:33.553Z,5.70
2019-05-25T11:54:02.458Z,3.50
2019-05-25T11:56:31.354Z,7.10
2019-05-25T11:59:19.479Z,3.33
2019-05-25T12:01:48.386Z,5.60
2019-05-25T12:04:17.313Z,1.70
2019-05-25T12:06:46.191Z,8.13
2019-05-25T12:09:15.067Z,5.63
2019-05-25T12:11:43.986Z,5.40
2019-05-25T12:14:12.923Z,4.20
2019-05-25T12:16:41.814Z,6.47
2019-05-25T12:19:14.613Z,8.40
2019-05-25T12:21:41.670Z,7.80
2019-05-25T12:24:10.635Z,3.37
2019-05-25T12:26:39.621Z,3.63
2019-05-25T12:29:08.571Z,5.03
2019-05-25T12:31:37.523Z,4.83
2019-05-25T12:34:06.591Z,6.90
2019-05-25T12:36:35.522Z,4.83
2019-05-25T12:39:06.064Z,5.63
2019-05-25T12:41:35.015Z,5.47
2019-05-25T12:44:04.075Z,5.87
2019-05-25T12:46:32.975Z,4.40
2019-05-25T12:49:02.011Z,6.20
2019-05-25T12:51:31.004Z,5.47
2019-05-25T12:53:59.996Z,4.67
2019-05-25T12:56:28.946Z,5.40
2019-05-25T12:58:57.966Z,4.60
2019-05-25T13:01:27.053Z,3.57
2019-05-25T13:03:55.965Z,4.13
2019-05-25T13:06:24.913Z,3.70
2019-05-25T13:08:53.781Z,5.10
2019-05-25T13:11:22.785Z,6.07
2019-05-25T13:13:51.895Z,6.73
2019-05-25T13:16:20.824Z,2.87
2019-05-25T13:18:49.855Z,7.13
2019-05-25T13:21:19.929Z,6.63
2019-05-25T13:23:48.803Z,5.57
2019-05-25T13:26:17.773Z,3.00
2019-05-25T13:28:46.726Z,2.17
2019-05-25T13:31:15.609Z,5.07
2019-05-25T13:33:44.480Z,5.17
2019-05-25T13:36:13.520Z,5.93
2019-05-25T13:38:42.446Z,6.37
2019-05-25T13:41:11.411Z,6.40
2019-05-25T13:43:40.440Z,2.33
2019-05-25T13:46:09.415Z,7.03
2019-05-25T13:48:38.477Z,3.37
2019-05-25T13:51:07.451Z,1.60
2019-05-25T13:53:36.793Z,1.93
2019-05-25T13:56:05.727Z,4.47
2019-05-25T13:58:34.693Z,6.80
2019-05-25T14:01:03.737Z,6.30
2019-05-25T14:03:32.805Z,6.27
2019-05-25T14:06:01.732Z,2.83
2019-05-25T14:08:30.713Z,1.87
2019-05-25T14:10:59.758Z,2.33
2019-05-25T14:13:28.830Z,4.67
2019-05-25T14:16:06.640Z,4.27
2019-05-25T14:18:30.255Z,3.93
2019-05-25T14:20:59.339Z,2.90
2019-05-25T14:23:28.439Z,4.80
2019-05-25T14:25:57.507Z,3.10
2019-05-25T14:28:26.467Z,4.43
2019-05-25T14:30:55.542Z,4.73
2019-05-25T14:33:24.696Z,1.60
2019-05-25T14:35:53.754Z,2.20
2019-05-25T14:38:22.868Z,1.80
2019-05-25T14:40:51.791Z,1.50
2019-05-25T14:43:20.859Z,3.27
2019-05-25T14:45:53.180Z,1.83
2019-05-25T14:48:20.563Z,4.97
2019-05-25T14:50:49.569Z,2.47
2019-05-25T14:53:18.574Z,2.70
2019-05-25T14:55:47.557Z,3.33
2019-05-25T14:58:16.543Z,2.93
2019-05-25T15:00:45.474Z,5.57
2019-05-25T15:03:14.409Z,1.43
2019-05-25T15:05:43.414Z,2.40
2019-05-25T15:08:12.373Z,3.53
2019-05-25T15:10:41.430Z,1.40
2019-05-25T15:13:10.358Z,2.37
2019-05-25T15:15:39.399Z,2.67
2019-05-25T15:18:08.353Z,1.47
2019-05-25T15:20:37.938Z,4.97
2019-05-25T15:23:06.903Z,2.07
2019-05-25T15:25:35.933Z,2.87
2019-05-25T15:28:04.840Z,2.80
2019-05-25T15:30:33.810Z,7.93
2019-05-25T15:33:02.655Z,2.47
2019-05-25T15:35:31.479Z,3.53
2019-05-25T15:38:00.411Z,2.97
2019-05-25T15:40:29.327Z,3.27
2019-05-25T15:42:58.190Z,1.87
2019-05-25T15:45:27.115Z,1.93
2019-05-25T15:47:55.962Z,3.63
2019-05-25T15:50:24.972Z,5.93
2019-05-25T15:52:56.532Z,2.97
2019-05-25T15:55:24.722Z,3.47
2019-05-25T15:57:53.622Z,7.03
2019-05-25T16:00:25.680Z,6.70
2019-05-25T16:02:54.524Z,10.93
2019-05-25T16:05:23.435Z,6.83
2019-05-25T16:07:53.850Z,6.13
2019-05-25T16:10:22.914Z,3.47
2019-05-25T16:12:51.741Z,3.23
2019-05-25T16:15:27.711Z,5.93
2019-05-25T16:17:56.526Z,3.10
2019-05-25T16:20:25.467Z,5.07
2019-05-25T16:22:54.466Z,2.73
2019-05-25T16:25:23.455Z,2.40
2019-05-25T16:27:52.359Z,4.43
2019-05-25T16:30:21.395Z,3.10
2019-05-25T16:35:21.799Z,4.50
2019-05-25T16:37:50.915Z,4.13
2019-05-25T16:40:20.667Z,2.77
2019-05-25T16:42:49.578Z,3.90
2019-05-25T16:45:18.667Z,3.10
2019-05-25T16:47:47.591Z,4.03
2019-05-25T16:50:18.635Z,3.97
2019-05-25T16:52:47.621Z,3.10
2019-05-25T16:55:16.610Z,4.23
2019-05-25T16:57:45.678Z,2.87
2019-05-25T17:00:18.163Z,3.70
2019-05-25T17:02:47.195Z,4.33
2019-05-25T17:05:16.123Z,2.33
2019-05-25T17:07:45.015Z,2.47
2019-05-25T17:10:14.002Z,3.37
2019-05-25T17:12:42.841Z,1.83
2019-05-25T17:15:11.835Z,1.93
2019-05-25T17:17:40.673Z,3.10
2019-05-25T17:20:09.680Z,2.43
2019-05-25T17:22:38.582Z,1.67
2019-05-25T17:25:09.319Z,1.97
2019-05-25T17:27:38.310Z,2.80
2019-05-25T17:30:09.423Z,2.40
2019-05-25T17:32:38.389Z,2.37
2019-05-25T17:35:07.528Z,2.53
2019-05-25T17:37:36.457Z,3.73
2019-05-25T17:40:05.970Z,2.70
2019-05-25T17:42:34.934Z,2.67
2019-05-25T17:45:03.867Z,1.90
2019-05-25T17:47:32.842Z,2.67
2019-05-25T17:50:01.783Z,2.83
2019-05-25T17:52:30.710Z,6.03
2019-05-25T17:54:59.571Z,4.43
2019-05-25T17:57:28.414Z,2.97
2019-05-25T17:59:59.466Z,2.27
2019-05-25T18:02:27.843Z,4.60
2019-05-25T18:04:56.667Z,2.93
2019-05-25T18:07:25.498Z,2.43
2019-05-25T18:09:54.539Z,4.00
2019-05-25T18:12:25.690Z,3.10
2019-05-25T18:14:54.507Z,2.77
2019-05-25T18:17:23.432Z,5.13
2019-05-25T18:19:52.403Z,3.77
2019-05-25T18:22:21.334Z,2.53
2019-05-25T18:24:50.260Z,3.57
2019-05-25T18:27:19.730Z,4.20
2019-05-25T18:29:48.667Z,1.60
2019-05-25T18:32:17.597Z,2.20
2019-05-25T18:34:46.579Z,3.43
2019-05-25T18:37:15.410Z,3.97
2019-05-25T18:39:44.237Z,2.67
2019-05-25T18:42:13.103Z,1.77
2019-05-25T18:44:41.976Z,3.40
2019-05-25T18:47:10.841Z,4.67
2019-05-25T18:49:39.765Z,4.97
2019-05-25T18:52:08.608Z,7.37
2019-05-25T18:54:37.462Z,2.37
2019-05-25T18:57:09.341Z,2.67
2019-05-25T18:59:37.200Z,2.37
2019-05-25T19:02:06.200Z,1.87
2019-05-25T19:04:44.861Z,3.43
2019-05-25T19:07:05.998Z,3.37
2019-05-25T19:09:34.851Z,2.47
2019-05-25T19:12:03.869Z,2.60
2019-05-25T19:14:32.736Z,3.77
2019-05-25T19:17:01.739Z,2.80
2019-05-25T19:19:30.774Z,3.07
2019-05-25T19:21:59.617Z,2.87
2019-05-25T19:24:28.518Z,2.50
2019-05-25T19:26:57.407Z,3.30
2019-05-25T19:29:26.339Z,2.63
2019-05-25T19:31:55.261Z,1.73
2019-05-25T19:34:24.183Z,4.13
2019-05-25T19:36:53.098Z,6.60
2019-05-25T19:39:22.090Z,4.60
2019-05-25T19:41:50.995Z,2.60
2019-05-25T19:44:19.898Z,2.97
2019-05-25T19:46:48.786Z,4.80
2019-05-25T19:49:17.625Z,4.47
2019-05-25T19:51:46.446Z,3.70
2019-05-25T19:54:15.327Z,4.13
2019-05-25T19:56:44.224Z,5.03
2019-05-25T19:59:13.145Z,4.13
2019-05-25T20:01:42.063Z,3.27
2019-05-25T20:04:11.003Z,2.90
2019-05-25T20:06:39.855Z,4.50
2019-05-25T20:09:08.845Z,2.73
2019-05-25T20:11:37.711Z,6.80
2019-05-25T20:14:06.699Z,5.73
2019-05-25T20:16:35.549Z,6.20
2019-05-25T20:19:04.563Z,6.13
2019-05-25T20:21:33.511Z,7.10
2019-05-25T20:24:02.432Z,5.17
2019-05-25T20:26:31.286Z,4.93
2019-05-25T20:29:00.208Z,6.67
2019-05-25T20:31:29.219Z,7.87
2019-05-25T20:33:58.082Z,6.93
2019-05-25T20:36:26.982Z,7.07
2019-05-25T20:38:55.906Z,6.53
2019-05-25T20:41:24.859Z,6.53
2019-05-25T20:43:53.834Z,5.40
2019-05-25T20:46:22.703Z,6.60
2019-05-25T20:48:51.634Z,6.27
2019-05-25T20:51:20.597Z,6.43
2019-05-25T20:53:49.446Z,7.53
2019-05-25T20:56:18.438Z,7.80
2019-05-25T20:58:47.275Z,7.77
2019-05-25T21:01:16.268Z,7.70
2019-05-25T21:03:45.213Z,9.30
2019-05-25T21:06:14.214Z,9.50
2019-05-25T21:08:43.042Z,11.47
2019-05-25T21:11:11.915Z,11.97
2019-05-25T21:13:41.058Z,11.73
2019-05-25T21:16:09.974Z,11.70
2019-05-25T21:18:38.837Z,12.67
2019-05-25T21:21:07.761Z,12.90
2019-05-25T21:23:36.755Z,14.30
2019-05-25T21:26:05.751Z,15.53
2019-05-25T21:28:34.640Z,17.17
2019-05-25T21:31:03.649Z,18.27
2019-05-25T21:33:32.481Z,20.53
2019-05-25T21:36:08.102Z,21.60
2019-05-25T21:38:31.982Z,19.13
2019-05-25T21:41:00.925Z,19.77
2019-05-25T21:43:29.776Z,21.40
2019-05-25T21:45:58.648Z,22.10
2019-05-25T21:48:27.487Z,22.43
2019-05-25T21:50:56.342Z,24.57
2019-05-25T21:53:25.264Z,24.33
2019-05-25T21:55:54.187Z,23.30
2019-05-25T21:58:23.179Z,23.57
2019-05-25T22:00:52.305Z,26.47
2019-05-25T22:03:21.291Z,27.00
2019-05-25T22:05:50.444Z,26.83
2019-05-25T22:08:19.423Z,29.87
2019-05-25T22:10:48.418Z,29.07
2019-05-25T22:13:27.946Z,32.07
2019-05-25T22:15:47.926Z,30.53
2019-05-25T22:18:16.787Z,28.80
2019-05-25T22:20:45.838Z,29.30
2019-05-25T22:23:14.774Z,28.63
2019-05-25T22:25:44.262Z,31.83
2019-05-25T22:28:13.125Z,31.93
2019-05-25T22:30:42.020Z,33.53
2019-05-25T22:33:10.942Z,33.90
2019-05-25T22:35:39.789Z,33.07
2019-05-25T22:38:08.650Z,33.43
2019-05-25T22:40:37.565Z,36.70
2019-05-25T22:43:06.614Z,36.67
2019-05-25T22:45:35.454Z,35.07
2019-05-25T22:48:04.453Z,35.57
2019-05-25T22:50:33.370Z,37.40
2019-05-25T22:53:02.284Z,38.60
2019-05-25T22:55:31.213Z,39.53
2019-05-25T22:58:00.102Z,39.30
2019-05-25T23:00:29.076Z,37.93
2019-05-25T23:02:57.942Z,40.03
2019-05-25T23:05:26.876Z,41.40
2019-05-25T23:07:55.735Z,40.23
2019-05-25T23:10:24.655Z,40.30
2019-05-25T23:12:53.651Z,40.87
2019-05-25T23:15:22.732Z,41.63
2019-05-25T23:17:51.692Z,41.60
2019-05-25T23:20:20.621Z,40.20
2019-05-25T23:22:49.539Z,41.37
2019-05-25T23:25:18.477Z,42.57
2019-05-25T23:27:47.458Z,43.37
2019-05-25T23:30:16.464Z,44.67
2019-05-25T23:32:45.299Z,44.73
2019-05-25T23:35:14.407Z,43.90
2019-05-25T23:37:43.234Z,43.97
2019-05-25T23:40:12.636Z,47.57
2019-05-25T23:42:41.582Z,50.17
2019-05-25T23:45:11.372Z,48.63
2019-05-25T23:47:40.302Z,48.33
2019-05-25T23:50:11.190Z,45.33
2019-05-25T23:52:40.166Z,51.47
2019-05-25T23:55:09.409Z,48.57
2019-05-25T23:57:38.308Z,48.97
